Time;durP1;ratioP1;P1;durP2;ratioP2;P2;SDS_P1;SDS_P2;PMS_P1;PMS_P2;Temp;Humidity;BMP_temperature;BMP_pressure;BME280_temperature;BME280_humidity;BME280_pressure;Samples;Min_cycle;Max_cycle;Signal;HPM_P1;HPM_P2
2022/04/14 00:01:16;;;;;;;11.30;8.40;;;11.00;99.90;;;;;;4969208;28;20047;-81
2022/04/14 00:03:42;;;;;;;18.95;9.05;;;11.00;99.90;;;;;;4921091;29;20463;-82
2022/04/14 00:06:07;;;;;;;18.52;9.13;;;10.90;99.90;;;;;;4969326;28;20047;-83
2022/04/14 00:08:33;;;;;;;17.30;8.43;;;11.00;99.90;;;;;;4937434;29;20039;-84
2022/04/14 00:10:59;;;;;;;14.00;7.57;;;11.40;99.90;;;;;;4937297;29;20051;-82
2022/04/14 00:13:25;;;;;;;14.93;8.45;;;11.00;99.90;;;;;;4953136;29;20138;-85
2022/04/14 00:15:50;;;;;;;14.52;7.95;;;10.90;99.90;;;;;;4954685;29;20057;-81
2022/04/14 00:18:16;;;;;;;13.50;7.60;;;11.30;99.90;;;;;;4968621;28;20134;-81
2022/04/14 00:20:42;;;;;;;21.58;9.00;;;10.90;99.90;;;;;;4954189;29;20729;-82
2022/04/14 00:23:08;;;;;;;18.35;8.90;;;11.30;99.90;;;;;;4952605;29;20503;-81
2022/04/14 00:25:34;;;;;;;17.42;8.43;;;10.80;99.90;;;;;;4936894;29;20049;-85
2022/04/14 00:28:00;;;;;;;18.25;9.80;;;10.80;99.90;;;;;;4968589;28;20122;-81
2022/04/14 00:30:25;;;;;;;12.93;9.10;;;10.90;99.90;;;;;;4936645;29;20070;-81
2022/04/14 00:32:51;;;;;;;16.90;8.95;;;10.80;99.90;;;;;;4937019;29;20102;-81
2022/04/14 00:35:17;;;;;;;17.73;8.90;;;10.70;99.90;;;;;;4953937;29;20035;-83
2022/04/14 00:37:42;;;;;;;15.98;8.75;;;10.70;99.90;;;;;;4954084;29;20612;-84
2022/04/14 00:40:09;;;;;;;14.30;8.10;;;10.80;99.90;;;;;;4953996;29;20134;-82
2022/04/14 00:42:34;;;;;;;18.90;9.23;;;10.60;99.90;;;;;;4937013;29;20070;-85
2022/04/14 00:45:00;;;;;;;13.07;9.02;;;10.60;99.90;;;;;;4954258;29;20051;-81
2022/04/14 00:47:26;;;;;;;18.05;8.52;;;10.60;99.90;;;;;;4954305;29;20043;-80
2022/04/14 00:49:52;;;;;;;16.98;8.85;;;10.60;99.90;;;;;;4953296;29;20058;-81
2022/04/14 00:52:22;;;;;;;14.90;8.80;;;10.90;99.90;;;;;;4951334;28;20110;-83
2022/04/14 00:54:47;;;;;;;15.32;8.27;;;10.50;99.90;;;;;;4953925;29;20121;-84
2022/04/14 00:57:14;;;;;;;13.88;8.82;;;10.40;99.90;;;;;;4936689;29;20406;-84
2022/04/14 00:59:41;;;;;;;17.65;8.90;;;10.40;99.90;;;;;;4936541;29;20134;-83
2022/04/14 01:02:08;;;;;;;14.85;8.90;;;10.40;99.90;;;;;;4953435;29;20047;-85
2022/04/14 01:04:34;;;;;;;15.02;9.52;;;10.40;99.90;;;;;;4936036;29;20626;-83
2022/04/14 01:07:00;;;;;;;15.32;9.02;;;10.40;99.90;;;;;;4953104;29;20126;-82
2022/04/14 01:09:26;;;;;;;14.73;8.88;;;10.60;99.90;;;;;;4953400;29;20047;-86
2022/04/14 01:11:55;;;;;;;16.77;10.13;;;10.20;99.90;;;;;;4917104;29;20043;-82
2022/04/14 01:14:32;;;;;;;14.50;8.95;;;10.40;99.90;;;;;;4934595;29;20051;-85
2022/04/14 01:16:59;;;;;;;17.58;9.88;;;10.20;99.90;;;;;;4916945;29;20052;-85
2022/04/14 01:19:26;;;;;;;17.05;9.48;;;10.20;99.90;;;;;;4916809;29;20048;-82
2022/04/14 01:22:12;;;;;;;16.13;9.43;;;10.20;99.90;;;;;;4944863;29;20061;-86
2022/04/14 01:24:39;;;;;;;15.75;9.18;;;10.40;99.90;;;;;;4953301;29;20101;-81
2022/04/14 01:27:05;;;;;;;20.88;10.02;;;10.00;99.90;;;;;;4953168;29;20050;-85
2022/04/14 01:29:31;;;;;;;16.83;9.10;;;10.10;99.90;;;;;;4952843;29;20050;-80
2022/04/14 01:31:58;;;;;;;15.88;8.50;;;9.90;99.90;;;;;;4952497;29;20203;-84
2022/04/14 01:34:25;;;;;;;14.13;9.23;;;9.90;99.90;;;;;;4953084;29;20075;-84
2022/04/14 01:36:51;;;;;;;16.50;9.32;;;9.90;99.90;;;;;;4952898;29;20043;-82
2022/04/14 01:39:16;;;;;;;20.70;9.40;;;9.90;99.90;;;;;;4953226;29;20047;-86
2022/04/14 01:41:43;;;;;;;19.58;9.75;;;9.90;99.90;;;;;;4935534;29;20482;-83
2022/04/14 01:44:10;;;;;;;17.25;9.95;;;9.80;99.90;;;;;;4935530;29;20490;-81
2022/04/14 01:46:37;;;;;;;22.25;10.75;;;9.80;99.90;;;;;;4952751;29;20175;-84
2022/04/14 01:49:04;;;;;;;19.83;10.50;;;9.80;99.90;;;;;;4952485;29;20049;-80
2022/04/14 01:51:30;;;;;;;17.35;10.05;;;9.70;99.90;;;;;;4952496;29;20545;-81
2022/04/14 01:53:56;;;;;;;16.80;10.43;;;10.20;99.90;;;;;;4952533;29;20086;-82
2022/04/14 01:56:22;;;;;;;18.05;11.05;;;9.80;99.90;;;;;;4935458;29;20051;-84
2022/04/14 01:58:49;;;;;;;22.60;11.02;;;9.70;99.90;;;;;;4919048;29;20423;-85
2022/04/14 02:01:15;;;;;;;20.02;12.05;;;9.70;99.90;;;;;;4933966;29;20135;-82
2022/04/14 02:03:40;;;;;;;17.42;11.77;;;9.70;99.90;;;;;;4951911;28;20130;-86
2022/04/14 02:06:06;;;;;;;21.98;11.43;;;10.20;99.90;;;;;;4934838;29;20094;-80
2022/04/14 02:08:32;;;;;;;18.58;12.57;;;9.60;99.90;;;;;;4952375;29;20058;-80
2022/04/14 02:10:57;;;;;;;20.02;11.65;;;9.60;99.90;;;;;;4952481;29;20047;-77
2022/04/14 02:13:23;;;;;;;25.27;12.10;;;9.80;99.90;;;;;;4952326;29;20043;-86
2022/04/14 02:15:49;;;;;;;21.27;12.00;;;9.50;99.90;;;;;;4918619;29;20082;-85
2022/04/14 02:18:14;;;;;;;16.98;12.18;;;9.50;99.90;;;;;;4952064;29;20126;-84
2022/04/14 02:20:40;;;;;;;19.02;11.43;;;9.60;99.90;;;;;;4952378;29;20047;-84
2022/04/14 02:23:05;;;;;;;21.77;12.30;;;9.70;99.90;;;;;;4934557;29;20467;-81
2022/04/14 02:25:31;;;;;;;20.85;11.88;;;9.50;99.90;;;;;;4934731;29;20495;-85
2022/04/14 02:27:57;;;;;;;20.27;12.05;;;9.60;99.90;;;;;;4918945;29;20039;-84
2022/04/14 02:30:23;;;;;;;26.15;14.45;;;9.40;99.90;;;;;;4952536;29;20047;-81
2022/04/14 02:32:48;;;;;;;23.60;13.95;;;9.30;99.90;;;;;;4934902;29;20071;-81
2022/04/14 02:35:14;;;;;;;23.08;14.15;;;9.40;99.90;;;;;;4952265;29;20518;-79
2022/04/14 02:37:40;;;;;;;22.23;15.18;;;9.40;99.90;;;;;;4951457;29;20055;-85
2022/04/14 02:40:06;;;;;;;23.08;14.68;;;9.30;99.90;;;;;;4952154;29;20046;-81
2022/04/14 02:42:32;;;;;;;26.25;15.90;;;9.30;99.90;;;;;;4933891;29;20507;-86
2022/04/14 02:44:58;;;;;;;23.85;14.43;;;9.30;99.90;;;;;;4934003;29;20055;-79
2022/04/14 02:47:23;;;;;;;19.73;14.18;;;9.30;99.90;;;;;;4952013;29;20102;-82
2022/04/14 02:49:49;;;;;;;28.25;15.68;;;9.30;99.90;;;;;;4952145;29;20047;-83
2022/04/14 02:52:15;;;;;;;26.77;15.07;;;9.70;99.90;;;;;;4952054;29;20051;-80
2022/04/14 02:54:41;;;;;;;24.33;14.27;;;9.30;99.90;;;;;;4952007;29;20499;-83
2022/04/14 02:57:08;;;;;;;26.17;14.75;;;9.30;99.90;;;;;;4952056;29;20094;-81
2022/04/14 02:59:34;;;;;;;21.95;14.95;;;9.10;99.90;;;;;;4951872;29;20415;-82
2022/04/14 03:02:01;;;;;;;23.98;13.98;;;9.20;99.90;;;;;;4951715;29;20058;-83
2022/04/14 03:04:29;;;;;;;25.88;15.27;;;9.40;99.90;;;;;;4951869;29;20051;-79
2022/04/14 03:06:57;;;;;;;21.90;12.48;;;8.90;99.90;;;;;;4952501;29;20074;-84
2022/04/14 03:09:23;;;;;;;20.30;12.70;;;9.00;99.90;;;;;;4962097;29;20059;-79
2022/04/14 03:11:49;;;;;;;22.98;14.00;;;8.80;99.90;;;;;;4952424;29;20170;-81
2022/04/14 03:14:15;;;;;;;25.83;16.35;;;9.10;99.90;;;;;;4970495;29;20047;-80
2022/04/14 03:16:41;;;;;;;22.30;15.63;;;8.80;99.90;;;;;;4961458;28;20127;-79
2022/04/14 03:19:07;;;;;;;27.25;15.43;;;8.80;99.90;;;;;;4958001;29;20054;-80
2022/04/14 03:21:32;;;;;;;29.40;16.23;;;8.80;99.90;;;;;;4956630;29;20058;-82
2022/04/14 03:23:58;;;;;;;24.15;13.98;;;8.80;99.90;;;;;;4938599;29;20051;-79
2022/04/14 03:26:24;;;;;;;29.63;17.15;;;8.70;99.90;;;;;;4969517;28;20478;-82
2022/04/14 03:28:49;;;;;;;32.53;19.35;;;8.70;99.90;;;;;;4955285;29;20051;-82
2022/04/14 03:31:15;;;;;;;23.95;17.33;;;8.70;99.90;;;;;;4938003;29;20058;-84
2022/04/14 03:33:41;;;;;;;29.80;17.60;;;8.80;99.90;;;;;;4954996;29;20470;-81
2022/04/14 03:36:06;;;;;;;27.63;18.40;;;9.10;99.90;;;;;;4937248;29;20047;-78
2022/04/14 03:38:32;;;;;;;30.95;19.02;;;8.60;99.90;;;;;;4955091;29;20042;-83
2022/04/14 03:41:04;;;;;;;32.22;20.58;;;8.60;99.90;;;;;;4955342;29;20475;-81
2022/04/14 03:43:33;;;;;;;34.90;21.42;;;8.60;99.90;;;;;;4954582;29;20055;-84
2022/04/14 03:45:59;;;;;;;34.45;21.85;;;8.60;99.90;;;;;;4954837;29;20039;-78
2022/04/14 03:48:25;;;;;;;33.00;19.95;;;8.60;99.90;;;;;;4953704;29;20796;-81
2022/04/14 03:50:50;;;;;;;34.42;20.55;;;8.90;99.90;;;;;;4937730;29;20094;-80
2022/04/14 03:53:17;;;;;;;32.63;21.50;;;8.60;99.90;;;;;;4954490;29;20198;-79
2022/04/14 03:55:43;;;;;;;31.17;20.90;;;8.60;99.90;;;;;;4955225;29;20050;-84
2022/04/14 03:58:08;;;;;;;37.63;20.70;;;8.60;99.90;;;;;;4954228;29;20035;-83
2022/04/14 04:00:34;;;;;;;30.75;20.65;;;8.90;99.90;;;;;;4954701;29;20493;-80
2022/04/14 04:03:00;;;;;;;32.05;20.88;;;8.50;99.90;;;;;;4954953;29;20423;-78
2022/04/14 04:05:25;;;;;;;36.05;21.98;;;8.50;99.90;;;;;;4937278;29;20055;-82
2022/04/14 04:07:51;;;;;;;33.20;21.98;;;9.00;99.90;;;;;;4954282;29;20043;-82
2022/04/14 04:10:17;;;;;;;33.80;20.85;;;8.50;99.90;;;;;;4954684;29;20051;-81
2022/04/14 04:12:42;;;;;;;31.35;19.02;;;8.40;99.90;;;;;;4936874;29;20057;-83
2022/04/14 04:15:10;;;;;;;36.13;20.75;;;8.30;99.90;;;;;;4954694;29;20051;-79
2022/04/14 04:17:36;;;;;;;35.92;22.70;;;8.30;99.90;;;;;;4937411;29;20062;-83
2022/04/14 04:20:02;;;;;;;37.17;21.92;;;8.30;99.90;;;;;;4968821;28;20170;-82
2022/04/14 04:22:28;;;;;;;32.05;21.33;;;8.30;99.90;;;;;;4969335;28;20438;-82
2022/04/14 04:24:53;;;;;;;39.17;23.83;;;8.30;99.90;;;;;;4954255;29;20510;-79
2022/04/14 04:27:19;;;;;;;34.50;22.17;;;8.30;99.90;;;;;;4936026;29;20047;-82
2022/04/14 04:29:44;;;;;;;40.33;23.80;;;8.30;99.90;;;;;;4936566;29;20059;-80
2022/04/14 04:32:10;;;;;;;34.85;22.30;;;8.40;99.90;;;;;;4936330;29;20039;-76
2022/04/14 04:34:36;;;;;;;34.97;22.52;;;8.30;99.90;;;;;;4948965;29;20047;-80
2022/04/14 04:37:01;;;;;;;37.20;22.58;;;8.30;99.90;;;;;;4936442;29;20059;-78
2022/04/14 04:39:27;;;;;;;37.50;22.30;;;8.30;99.90;;;;;;4953765;29;20054;-80
2022/04/14 04:41:53;;;;;;;27.30;16.52;;;8.30;99.90;;;;;;4953938;29;20066;-79
2022/04/14 04:44:19;;;;;;;29.42;17.42;;;8.10;99.90;;;;;;4936867;29;20148;-79
2022/04/14 04:46:44;;;;;;;24.33;15.30;;;8.00;99.90;;;;;;4936314;29;20483;-79
2022/04/14 04:49:10;;;;;;;24.85;17.42;;;7.90;99.90;;;;;;4936657;29;20079;-81
2022/04/14 04:51:35;;;;;;;18.10;12.60;;;7.90;99.90;;;;;;4953400;29;20049;-83
2022/04/14 04:54:01;;;;;;;24.50;14.43;;;7.80;99.90;;;;;;4936653;29;20059;-81
2022/04/14 04:56:27;;;;;;;17.85;13.40;;;8.30;99.90;;;;;;4954253;29;20043;-82
2022/04/14 04:58:52;;;;;;;21.42;14.15;;;7.60;99.90;;;;;;4936297;29;20078;-80
2022/04/14 05:01:18;;;;;;;34.15;16.00;;;7.70;99.90;;;;;;4952645;29;20083;-81
2022/04/14 05:03:44;;;;;;;29.95;18.42;;;8.00;99.90;;;;;;4920546;29;20134;-79
2022/04/14 05:06:09;;;;;;;23.95;14.38;;;7.40;99.90;;;;;;4968449;28;20051;-80
2022/04/14 05:08:35;;;;;;;28.35;18.48;;;7.40;99.90;;;;;;4968246;28;20079;-82
2022/04/14 05:11:00;;;;;;;30.73;20.75;;;7.40;99.90;;;;;;4936207;29;20394;-79
2022/04/14 05:13:26;;;;;;;36.75;20.42;;;7.50;99.90;;;;;;4953303;29;20043;-80
2022/04/14 05:15:52;;;;;;;34.10;20.73;;;7.90;99.90;;;;;;4935440;29;20396;-82
2022/04/14 05:18:17;;;;;;;40.38;24.58;;;7.50;99.90;;;;;;4953403;29;20078;-84
2022/04/14 05:20:43;;;;;;;38.30;24.50;;;7.60;99.90;;;;;;4953409;29;20057;-84
2022/04/14 05:23:09;;;;;;;33.55;22.73;;;7.60;99.90;;;;;;4952910;29;20113;-82
2022/04/14 05:25:38;;;;;;;35.47;21.58;;;7.70;99.90;;;;;;4953034;29;20066;-81
2022/04/14 05:28:04;;;;;;;32.50;20.85;;;7.70;99.90;;;;;;4953527;29;20058;-82
2022/04/14 05:30:30;;;;;;;31.25;21.92;;;7.60;99.90;;;;;;4953267;29;20054;-84
2022/04/14 05:32:56;;;;;;;45.70;26.98;;;7.60;99.90;;;;;;4952562;29;20043;-84
2022/04/14 05:35:21;;;;;;;41.58;25.52;;;7.70;99.90;;;;;;4936146;29;20043;-80
2022/04/14 05:37:48;;;;;;;43.15;27.05;;;7.80;99.90;;;;;;4967075;28;20039;-83
2022/04/14 05:40:14;;;;;;;39.83;25.55;;;8.20;99.90;;;;;;4951890;28;20050;-84
2022/04/14 05:42:45;;;;;;;53.63;30.88;;;8.50;99.90;;;;;;4952862;29;20493;-82
2022/04/14 05:45:12;;;;;;;54.35;31.02;;;8.00;99.90;;;;;;4951375;29;20523;-81
2022/04/14 05:47:38;;;;;;;55.92;31.33;;;8.10;99.90;;;;;;4952383;29;20047;-80
2022/04/14 05:50:04;;;;;;;61.15;32.40;;;8.70;99.90;;;;;;4952574;29;20522;-78
2022/04/14 05:52:29;;;;;;;54.30;33.92;;;8.20;99.90;;;;;;4935346;29;20066;-82
2022/04/14 05:54:58;;;;;;;59.45;35.78;;;8.90;99.90;;;;;;4934964;29;20060;-81
2022/04/14 05:57:23;;;;;;;57.00;33.00;;;8.50;99.90;;;;;;4952584;29;20047;-79
2022/04/14 05:59:49;;;;;;;58.28;33.67;;;8.50;99.90;;;;;;4952823;29;20050;-84
2022/04/14 06:02:15;;;;;;;56.63;32.80;;;8.80;99.90;;;;;;4952121;29;20138;-83
2022/04/14 06:04:40;;;;;;;52.50;31.42;;;8.60;99.90;;;;;;4952065;29;20134;-82
2022/04/14 06:07:06;;;;;;;57.67;33.30;;;8.70;99.90;;;;;;4953126;29;20110;-80
2022/04/14 06:09:32;;;;;;;61.53;34.58;;;8.70;99.90;;;;;;4953871;29;20119;-82
2022/04/14 06:11:58;;;;;;;55.22;33.15;;;9.00;99.90;;;;;;4938443;29;20414;-84
2022/04/14 06:14:25;;;;;;;62.13;34.42;;;8.90;99.90;;;;;;4954727;29;20058;-79
2022/04/14 06:16:51;;;;;;;58.97;35.13;;;9.10;99.90;;;;;;4972556;29;20039;-82
2022/04/14 06:19:16;;;;;;;54.40;33.50;;;9.50;99.90;;;;;;4967648;29;20372;-82
2022/04/14 06:21:42;;;;;;;56.53;35.60;;;9.30;99.90;;;;;;4959854;29;20047;-80
2022/04/14 06:24:08;;;;;;;59.20;32.83;;;9.70;99.90;;;;;;4961022;29;20039;-82
2022/04/14 06:26:33;;;;;;;56.40;33.72;;;9.40;99.90;;;;;;4954299;29;20039;-86
2022/04/14 06:28:59;;;;;;;61.65;33.92;;;9.60;99.90;;;;;;4935395;29;20383;-83
2022/04/14 06:31:25;;;;;;;53.53;34.10;;;9.70;99.90;;;;;;4935827;29;20435;-85
2022/04/14 06:33:50;;;;;;;57.33;34.55;;;9.80;99.90;;;;;;4934494;29;20051;-84
2022/04/14 06:36:16;;;;;;;57.45;35.03;;;9.90;99.90;;;;;;4952031;29;20503;-84
2022/04/14 06:38:42;;;;;;;51.08;33.97;;;10.00;99.90;;;;;;4952434;29;20495;-81
2022/04/14 06:41:07;;;;;;;61.05;32.75;;;10.00;99.90;;;;;;4952033;29;20042;-84
2022/04/14 06:43:33;;;;;;;53.25;29.98;;;10.10;99.90;;;;;;4934586;29;20499;-82
2022/04/14 06:46:03;;;;;;;46.97;29.60;;;10.10;99.90;;;;;;4952267;29;20055;-83
2022/04/14 06:48:30;;;;;;;52.78;30.65;;;10.50;99.90;;;;;;4951478;29;20051;-81
2022/04/14 06:50:56;;;;;;;46.70;29.27;;;10.20;99.90;;;;;;4953331;28;20535;-80
2022/04/14 06:53:22;;;;;;;49.58;30.05;;;10.20;99.90;;;;;;4938318;29;20901;-82
2022/04/14 06:55:48;;;;;;;48.65;31.98;;;10.30;99.90;;;;;;4955875;29;20063;-84
2022/04/14 06:58:13;;;;;;;42.67;29.42;;;10.60;99.90;;;;;;4956007;29;20071;-82
2022/04/14 07:00:40;;;;;;;47.50;29.95;;;10.40;99.90;;;;;;4955420;29;20079;-81
2022/04/14 07:03:06;;;;;;;45.75;28.92;;;10.50;99.90;;;;;;4955641;29;20047;-83
2022/04/14 07:05:32;;;;;;;45.05;28.05;;;10.60;99.90;;;;;;4955465;29;20132;-81
2022/04/14 07:07:58;;;;;;;46.03;27.75;;;11.20;99.90;;;;;;4954732;29;20043;-84
2022/04/14 07:10:23;;;;;;;48.25;30.50;;;10.80;99.90;;;;;;4938987;29;20103;-91
2022/04/14 07:12:49;;;;;;;47.50;29.77;;;11.20;99.90;;;;;;4955612;29;20058;-83
2022/04/14 07:15:15;;;;;;;44.65;27.52;;;11.50;99.90;;;;;;4955760;29;20090;-82
2022/04/14 07:17:44;;;;;;;42.13;27.27;;;10.90;99.90;;;;;;4955791;29;20107;-85
2022/04/14 07:20:10;;;;;;;41.40;25.75;;;11.10;99.90;;;;;;4955457;29;20047;-83
2022/04/14 07:22:47;;;;;;;41.72;27.80;;;11.20;99.90;;;;;;4954985;29;20143;-85
2022/04/14 07:25:13;;;;;;;39.78;26.00;;;11.30;99.90;;;;;;4955124;29;20637;-86
2022/04/14 07:27:39;;;;;;;39.85;26.33;;;11.60;99.90;;;;;;4938211;29;20394;-84
2022/04/14 07:30:07;;;;;;;39.30;26.23;;;11.90;99.90;;;;;;4937507;29;20141;-83
2022/04/14 07:32:38;;;;;;;36.95;25.05;;;11.60;99.90;;;;;;4954613;29;20039;-82
2022/04/14 07:35:04;;;;;;;35.03;24.13;;;11.70;99.90;;;;;;4937771;29;20047;-80
2022/04/14 07:37:31;;;;;;;36.53;24.67;;;11.80;99.90;;;;;;4954742;29;20039;-84
2022/04/14 07:39:57;;;;;;;34.58;25.25;;;12.00;99.90;;;;;;4954993;29;20047;-83
2022/04/14 07:42:35;;;;;;;42.67;26.08;;;12.20;99.90;;;;;;4955325;29;20058;-84
2022/04/14 07:45:02;;;;;;;41.63;26.25;;;12.50;99.90;;;;;;4937647;29;20051;-87
2022/04/14 07:47:29;;;;;;;38.33;24.65;;;12.20;99.90;;;;;;4954537;29;20051;-86
2022/04/14 07:49:55;;;;;;;40.53;25.55;;;12.90;99.90;;;;;;4955010;29;20043;-83
2022/04/14 07:52:20;;;;;;;36.33;24.25;;;12.80;99.90;;;;;;4954299;29;20059;-85
2022/04/14 07:54:46;;;;;;;33.40;21.60;;;13.00;99.90;;;;;;4953928;29;20083;-83
2022/04/14 07:57:12;;;;;;;33.28;23.85;;;13.10;99.90;;;;;;4954763;29;20044;-85
2022/04/14 07:59:37;;;;;;;35.55;24.40;;;13.10;99.90;;;;;;4953905;29;20043;-83
2022/04/14 08:02:03;;;;;;;32.33;23.05;;;12.90;99.90;;;;;;4953138;28;20483;-80
2022/04/14 08:04:31;;;;;;;34.38;23.98;;;12.90;99.90;;;;;;4953672;29;20082;-81
2022/04/14 08:06:57;;;;;;;33.72;22.95;;;13.40;99.90;;;;;;4953883;29;20458;-82
2022/04/14 08:09:23;;;;;;;33.03;22.55;;;13.10;99.90;;;;;;4954982;29;20138;-82
2022/04/14 08:11:48;;;;;;;36.53;23.23;;;14.00;99.90;;;;;;4955614;29;20094;-84
2022/04/14 08:14:14;;;;;;;29.13;21.50;;;14.00;99.90;;;;;;4974583;28;20038;-83
2022/04/14 08:16:40;;;;;;;33.10;22.08;;;13.80;99.90;;;;;;4946649;29;20067;-84
2022/04/14 08:19:05;;;;;;;33.17;21.65;;;14.20;99.90;;;;;;4957724;29;20043;-82
2022/04/14 08:21:31;;;;;;;30.33;21.35;;;14.30;99.90;;;;;;4945755;29;20147;-85
2022/04/14 08:27:22;;;;;;;30.80;21.38;;;14.40;99.90;;;;;;4954444;29;20058;-83
2022/04/14 08:29:48;;;;;;;26.92;18.73;;;14.70;99.90;;;;;;4920437;29;20063;-84
2022/04/14 08:32:13;;;;;;;27.67;18.75;;;14.80;99.90;;;;;;4920509;29;20055;-84
2022/04/14 08:34:40;;;;;;;26.85;18.83;;;15.30;99.90;;;;;;4936438;29;20043;-84
2022/04/14 08:37:06;;;;;;;28.95;19.63;;;15.00;99.90;;;;;;4953815;29;20081;-84
2022/04/14 08:39:32;;;;;;;33.55;21.15;;;15.20;99.90;;;;;;4936253;29;20059;-83
2022/04/14 08:42:08;;;;;;;25.27;17.42;;;15.40;99.90;;;;;;4954310;29;20047;-85
2022/04/14 08:44:46;;;;;;;26.17;19.40;;;15.50;99.90;;;;;;4936723;29;20058;-85
2022/04/14 08:47:15;;;;;;;22.38;16.80;;;15.70;99.90;;;;;;4920357;29;20103;-84
2022/04/14 08:49:43;;;;;;;20.20;15.70;;;15.70;99.90;;;;;;4920740;29;20047;-85
2022/04/14 08:52:14;;;;;;;21.58;16.30;;;16.30;99.90;;;;;;4935794;29;20058;-86
2022/04/14 08:54:52;;;;;;;22.67;16.45;;;16.00;99.90;;;;;;4953489;29;20058;-87
2022/04/14 08:57:24;;;;;;;18.17;12.80;;;16.10;99.90;;;;;;4936491;29;20411;-85
2022/04/14 08:59:50;;;;;;;25.55;15.10;;;16.20;99.90;;;;;;4936538;29;20368;-85
2022/04/14 09:02:21;;;;;;;21.25;13.98;;;16.30;99.90;;;;;;4920144;29;20399;-87
2022/04/14 09:04:49;;;;;;;22.63;12.38;;;16.40;99.90;;;;;;4936412;29;20569;-87
2022/04/14 09:07:18;;;;;;;20.50;11.35;;;16.30;99.90;;;;;;4936377;29;20402;-87
2022/04/14 09:09:45;;;;;;;16.90;11.80;;;16.40;99.90;;;;;;4952984;29;20773;-90
2022/04/14 09:12:13;;;;;;;16.90;10.88;;;16.40;99.90;;;;;;4953645;29;20062;-85
2022/04/14 09:14:40;;;;;;;16.85;11.07;;;16.70;99.90;;;;;;4953320;28;20101;-87
2022/04/14 09:17:12;;;;;;;16.75;12.00;;;16.50;99.90;;;;;;4920616;29;20062;-85
2022/04/14 09:19:38;;;;;;;17.92;11.18;;;16.70;99.90;;;;;;4953322;29;20039;-86
2022/04/14 09:22:10;;;;;;;14.90;10.77;;;16.80;99.90;;;;;;4953451;29;20388;-85
2022/04/14 09:24:39;;;;;;;13.57;9.80;;;17.30;99.90;;;;;;4920197;29;20494;-88
2022/04/14 09:27:05;;;;;;;14.73;9.52;;;16.90;99.90;;;;;;4935591;29;20083;-90
2022/04/14 09:29:31;;;;;;;14.35;8.93;;;17.10;99.90;;;;;;4953586;29;20131;-84
2022/04/14 09:31:56;;;;;;;14.52;10.38;;;17.10;99.90;;;;;;4952076;29;20055;-88
2022/04/14 09:34:51;;;;;;;18.10;10.13;;;17.20;99.90;;;;;;4920119;29;20441;-85
2022/04/14 09:37:23;;;;;;;17.38;11.20;;;17.30;99.90;;;;;;4935824;29;20054;-85
2022/04/14 09:39:55;;;;;;;16.77;10.90;;;17.30;99.90;;;;;;4919907;29;20043;-86
2022/04/14 09:42:22;;;;;;;13.30;9.85;;;17.20;99.90;;;;;;4951981;29;20058;-84
2022/04/14 09:44:49;;;;;;;14.43;8.45;;;16.90;99.90;;;;;;4952922;29;20146;-86
2022/04/14 09:47:26;;;;;;;12.68;7.60;;;17.20;99.90;;;;;;4953034;29;20063;-85
2022/04/14 09:49:51;;;;;;;12.98;7.88;;;17.30;99.90;;;;;;4952857;29;20264;-86
2022/04/14 09:52:17;;;;;;;14.82;8.07;;;17.40;99.90;;;;;;4919144;29;20471;-84
2022/04/14 09:55:06;;;;;;;13.35;7.43;;;17.30;99.90;;;;;;4935463;29;20142;-85
2022/04/14 09:57:31;;;;;;;11.88;7.30;;;17.40;99.90;;;;;;4952337;29;20114;-84
2022/04/14 09:59:57;;;;;;;12.35;7.07;;;17.40;99.90;;;;;;4952977;29;20051;-86
2022/04/14 10:02:23;;;;;;;9.93;6.20;;;17.80;99.90;;;;;;4952441;29;20040;-87
2022/04/14 10:04:59;;;;;;;12.30;6.65;;;17.60;99.90;;;;;;4919241;29;20554;-84
2022/04/14 10:07:29;;;;;;;9.13;6.45;;;17.80;99.90;;;;;;4952908;29;20051;-89
2022/04/14 10:09:58;;;;;;;11.52;6.80;;;17.80;99.90;;;;;;4935124;29;20055;-84
2022/04/14 10:12:30;;;;;;;13.38;6.50;;;17.80;99.90;;;;;;4934457;29;20106;-86
2022/04/14 10:14:56;;;;;;;10.38;5.47;;;17.90;99.90;;;;;;4935652;29;20051;-86
2022/04/14 10:17:24;;;;;;;9.93;5.78;;;18.00;99.90;;;;;;4967425;28;20046;-86
2022/04/14 10:19:51;;;;;;;10.77;5.85;;;18.00;99.90;;;;;;4952419;29;20054;-84
2022/04/14 10:22:17;;;;;;;9.57;5.47;;;18.00;99.90;;;;;;4951966;29;20079;-85
2022/04/14 10:24:54;;;;;;;14.77;6.40;;;18.20;99.90;;;;;;4934627;29;20055;-84
2022/04/14 10:27:25;;;;;;;12.48;5.97;;;18.10;99.90;;;;;;4938397;29;20083;-82
2022/04/14 10:29:51;;;;;;;8.05;4.38;;;18.00;99.90;;;;;;4948213;29;20588;-86
2022/04/14 10:32:17;;;;;;;10.73;4.65;;;18.20;99.90;;;;;;4945344;29;20514;-84
2022/04/14 10:34:45;;;;;;;7.43;3.97;;;18.00;99.90;;;;;;4935388;29;20087;-84
2022/04/14 10:37:23;;;;;;;9.63;4.30;;;18.20;99.90;;;;;;4953130;29;20105;-86
2022/04/14 10:39:49;;;;;;;7.68;3.78;;;18.40;99.90;;;;;;4923570;29;20074;-83
2022/04/14 10:42:23;;;;;;;7.22;3.58;;;18.50;99.90;;;;;;4949676;29;20062;-82
2022/04/14 10:44:50;;;;;;;6.78;3.35;;;18.60;99.90;;;;;;4948298;29;20047;-84
2022/04/14 10:47:57;;;;;;;6.30;3.63;;;18.70;99.90;;;;;;4939122;29;20512;-85
2022/04/14 10:50:27;;;;;;;26.33;4.03;;;18.60;99.90;;;;;;4955337;29;20047;-85
2022/04/14 10:53:11;;;;;;;12.25;3.97;;;18.40;99.90;;;;;;4918022;29;20059;-84
2022/04/14 10:55:46;;;;;;;8.75;3.50;;;18.50;99.90;;;;;;4935408;29;20118;-84
2022/04/14 10:58:37;;;;;;;11.02;4.18;;;18.50;99.90;;;;;;4952398;29;20472;-84
2022/04/14 11:01:03;;;;;;;6.88;3.10;;;18.60;99.90;;;;;;4951062;29;20533;-85
2022/04/14 11:03:46;;;;;;;6.30;2.70;;;18.60;99.90;;;;;;4929382;29;20048;-83
2022/04/14 11:06:47;;;;;;;8.15;2.88;;;18.30;99.90;;;;;;4933189;29;20048;-84
2022/04/14 11:09:38;;;;;;;7.15;2.60;;;18.50;99.90;;;;;;4915898;29;20048;-83
2022/04/14 11:12:12;;;;;;;4.43;1.48;;;18.50;99.90;;;;;;4929442;29;20055;-84
2022/04/14 11:14:56;;;;;;;6.97;2.20;;;18.30;99.90;;;;;;4951630;29;20512;-82
2022/04/14 11:17:37;;;;;;;5.72;1.73;;;18.10;99.90;;;;;;4951937;29;20047;-84
2022/04/14 11:20:18;;;;;;;5.50;1.63;;;18.30;99.90;;;;;;4934733;29;20110;-84
2022/04/14 11:23:06;;;;;;;6.30;2.10;;;18.40;99.90;;;;;;4951865;29;20056;-84
2022/04/14 11:25:48;;;;;;;7.32;2.58;;;18.60;99.90;;;;;;4933805;29;20057;-84
2022/04/14 11:28:27;;;;;;;7.32;2.20;;;18.90;99.90;;;;;;4934596;29;20384;-86
2022/04/14 11:30:54;;;;;;;4.32;2.40;;;18.80;99.90;;;;;;4918601;29;20134;-84
2022/04/14 11:33:30;;;;;;;5.07;2.50;;;18.80;99.90;;;;;;4934580;29;20055;-84
2022/04/14 11:36:34;;;;;;;23.35;3.08;;;18.60;99.90;;;;;;4911417;29;20546;-84
2022/04/14 11:39:05;;;;;;;3.97;1.80;;;18.60;99.90;;;;;;4876028;29;20070;-84
2022/04/14 11:41:41;;;;;;;5.50;1.75;;;18.80;99.90;;;;;;4897540;29;20087;-85
2022/04/14 11:44:32;;;;;;;7.38;2.30;;;18.70;99.90;;;;;;4914716;29;20131;-83
2022/04/14 11:47:00;;;;;;;6.70;2.40;;;18.50;99.90;;;;;;4898091;29;20068;-83
2022/04/14 11:49:29;;;;;;;6.63;2.50;;;18.40;99.90;;;;;;4914454;29;20437;-84
2022/04/14 11:52:02;;;;;;;7.38;2.88;;;18.50;99.90;;;;;;4914199;29;20064;-85
2022/04/14 11:54:30;;;;;;;7.18;3.92;;;18.70;99.90;;;;;;4914357;29;20100;-84
2022/04/14 11:57:10;;;;;;;8.85;2.70;;;18.60;99.90;;;;;;4914359;29;20052;-84
2022/04/14 11:59:39;;;;;;;7.95;4.18;;;18.80;99.90;;;;;;4914273;29;20052;-82
2022/04/14 12:02:14;;;;;;;7.60;4.10;;;18.90;99.90;;;;;;4929389;29;20487;-83
2022/04/14 12:04:47;;;;;;;8.45;4.10;;;19.00;99.90;;;;;;4879395;29;20454;-84
2022/04/14 12:07:14;;;;;;;10.23;4.68;;;19.10;99.90;;;;;;4918946;29;20172;-84
2022/04/14 12:09:43;;;;;;;12.52;3.95;;;19.10;99.90;;;;;;4935935;29;20052;-88
2022/04/14 12:12:13;;;;;;;9.05;3.63;;;19.40;99.90;;;;;;4934383;29;20062;-87
2022/04/14 12:14:52;;;;;;;9.50;3.50;;;19.10;99.90;;;;;;4937143;29;20376;-90
2022/04/14 12:17:23;;;;;;;18.10;4.72;;;19.20;99.90;;;;;;4954470;29;20051;-84
2022/04/14 12:19:53;;;;;;;11.23;4.75;;;19.20;99.90;;;;;;4902588;29;20043;-85
2022/04/14 12:22:20;;;;;;;7.95;3.45;;;19.30;99.90;;;;;;4902870;29;20055;-87
2022/04/14 12:24:56;;;;;;;8.85;3.78;;;19.20;99.90;;;;;;4929128;29;20062;-88
2022/04/14 12:27:39;;;;;;;6.32;3.60;;;19.20;99.90;;;;;;4921822;29;20491;-87
2022/04/14 12:30:15;;;;;;;44.72;6.50;;;19.10;99.90;;;;;;4954472;29;20043;-86
2022/04/14 12:32:43;;;;;;;9.77;3.00;;;19.00;99.90;;;;;;4937216;29;20046;-85
2022/04/14 12:35:10;;;;;;;7.32;1.88;;;18.70;99.90;;;;;;4913233;29;20056;-90
2022/04/14 12:37:54;;;;;;;17.42;2.55;;;18.90;99.90;;;;;;4914023;29;20134;-90
2022/04/14 12:40:25;;;;;;;7.93;2.13;;;18.90;99.90;;;;;;4913839;29;20139;-89
2022/04/14 12:42:50;;;;;;;17.25;2.90;;;18.70;99.90;;;;;;4882387;29;20108;-89
2022/04/14 12:45:22;;;;;;;7.72;2.90;;;18.70;99.90;;;;;;4882376;29;20693;-89